Time;durP1;ratioP1;P1;durP2;ratioP2;P2;SDS_P1;SDS_P2;PMS_P1;PMS_P2;Temp;Humidity;BMP_temperature;BMP_pressure;BME280_temperature;BME280_humidity;BME280_pressure;Samples;Min_cycle;Max_cycle;Signal;HPM_P1;HPM_P2
2023/01/18 00:01:36;;;;;;;6.20;1.48;;;-0.30;99.90;;;;;;7408248;19;19966;-71
2023/01/18 00:04:05;;;;;;;2.80;1.40;;;-0.70;99.90;;;;;;7406854;19;19923;-71
2023/01/18 00:06:34;;;;;;;2.35;1.42;;;-0.90;99.90;;;;;;7407354;19;19986;-71
2023/01/18 00:09:03;;;;;;;2.67;1.40;;;-0.80;99.90;;;;;;7406603;19;19922;-71
2023/01/18 00:11:31;;;;;;;2.30;1.35;;;-0.30;99.90;;;;;;7406765;19;19941;-71
2023/01/18 00:14:01;;;;;;;2.45;1.90;;;-1.50;99.90;;;;;;7407984;19;19915;-72
2023/01/18 00:16:31;;;;;;;2.25;1.65;;;-1.30;99.90;;;;;;7407001;19;20336;-71
2023/01/18 00:19:05;;;;;;;4.13;2.00;;;-1.10;99.90;;;;;;7407534;19;19919;-71
2023/01/18 00:21:34;;;;;;;3.70;1.88;;;-0.30;99.90;;;;;;7405442;19;20268;-71
2023/01/18 00:24:03;;;;;;;3.75;2.00;;;-1.10;99.90;;;;;;7404590;19;19951;-71
2023/01/18 00:26:33;;;;;;;3.30;1.63;;;-0.20;99.90;;;;;;7402719;19;19978;-71
2023/01/18 00:29:02;;;;;;;3.67;1.90;;;-0.40;99.90;;;;;;7404625;19;19921;-71
2023/01/18 00:31:31;;;;;;;3.75;1.92;;;-0.80;99.90;;;;;;7404406;19;19918;-71
2023/01/18 00:34:02;;;;;;;4.82;1.80;;;-1.40;99.90;;;;;;7404692;19;20009;-72
2023/01/18 00:36:33;;;;;;;;;;;-0.80;99.90;;;;;;7407583;19;19929;-71
2023/01/18 00:39:02;;;;;;;3.70;1.83;;;-1.50;99.90;;;;;;7404304;19;19942;-71
2023/01/18 00:41:31;;;;;;;2.13;1.30;;;-1.40;99.90;;;;;;7404555;19;19915;-72
2023/01/18 00:43:57;;;;;;;2.85;1.80;;;-1.60;99.90;;;;;;7404621;19;20557;-71
2023/01/18 00:46:28;;;;;;;4.53;1.67;;;-0.70;99.90;;;;;;7403981;19;20240;-71
2023/01/18 00:48:58;;;;;;;3.47;1.70;;;-1.80;99.90;;;;;;7403938;19;19915;-71
2023/01/18 00:51:30;;;;;;;4.53;2.15;;;-1.60;99.90;;;;;;7404766;19;19923;-71
2023/01/18 00:53:59;;;;;;;5.07;2.97;;;-0.20;99.90;;;;;;7403769;19;19926;-71
2023/01/18 00:56:28;;;;;;;3.70;2.00;;;-0.30;99.90;;;;;;7401422;19;19927;-71
2023/01/18 00:58:57;;;;;;;6.60;2.60;;;-1.50;99.90;;;;;;7404957;19;19937;-71
2023/01/18 01:01:26;;;;;;;3.47;1.77;;;-0.40;99.90;;;;;;7403588;19;19914;-71
2023/01/18 01:06:47;;;;;;;4.35;1.80;;;-0.40;99.90;;;;;;7401467;19;19923;-71
2023/01/18 01:09:19;;;;;;;2.78;1.60;;;-0.30;99.90;;;;;;7403369;19;19911;-71
2023/01/18 01:27:59;;;;;;;6.75;1.83;;;-0.70;99.90;;;;;;7400991;19;20357;-71
2023/01/18 01:30:28;;;;;;;5.20;1.88;;;-1.60;99.90;;;;;;7402391;19;19934;-72
2023/01/18 01:32:57;;;;;;;6.85;2.15;;;-0.90;99.90;;;;;;7404449;19;20272;-71
2023/01/18 01:35:26;;;;;;;2.70;1.80;;;-0.50;99.90;;;;;;7405177;19;19970;-71
2023/01/18 01:37:58;;;;;;;3.38;1.90;;;-0.70;99.90;;;;;;7401480;19;19926;-71
2023/01/18 01:40:27;;;;;;;2.97;2.13;;;;;;;;;;7405869;19;19918;-71
2023/01/18 01:42:56;;;;;;;4.43;1.95;;;-2.10;99.90;;;;;;7405607;19;19921;-71
2023/01/18 01:45:28;;;;;;;2.97;2.17;;;-0.80;99.90;;;;;;7402671;19;20251;-72
2023/01/18 01:47:58;;;;;;;12.35;2.88;;;-1.10;99.90;;;;;;7405201;19;19998;-71
2023/01/18 01:50:30;;;;;;;4.40;2.17;;;-1.20;99.90;;;;;;7406082;19;19927;-73
2023/01/18 01:53:02;;;;;;;4.78;2.13;;;-1.40;99.90;;;;;;7403453;19;19986;-72
2023/01/18 01:55:33;;;;;;;7.32;2.45;;;-2.10;99.90;;;;;;7404398;19;20005;-71
2023/01/18 01:58:07;;;;;;;2.95;2.05;;;-2.20;99.90;;;;;;7404302;19;20231;-71
2023/01/18 02:00:36;;;;;;;4.15;2.13;;;-2.20;99.90;;;;;;7402316;19;20251;-71
2023/01/18 02:03:09;;;;;;;5.05;2.47;;;-1.40;99.90;;;;;;7405380;19;19937;-71
2023/01/18 02:05:45;;;;;;;6.32;2.42;;;-0.70;99.90;;;;;;7401763;19;20259;-71
2023/01/18 02:08:21;;;;;;;4.68;1.90;;;-2.20;99.90;;;;;;7404950;19;19930;-71
2023/01/18 02:10:50;;;;;;;3.78;2.17;;;-2.10;99.90;;;;;;7403037;19;20256;-71
2023/01/18 02:13:21;;;;;;;4.82;2.17;;;-0.80;99.90;;;;;;7404661;19;20299;-71
2023/01/18 02:15:57;;;;;;;5.05;2.30;;;-1.40;99.90;;;;;;7403074;19;19965;-71
2023/01/18 02:18:30;;;;;;;2.70;1.83;;;-2.00;99.90;;;;;;7404085;19;19929;-71
2023/01/18 02:21:16;;;;;;;3.83;2.03;;;-0.70;99.90;;;;;;7403018;19;19927;-71
2023/01/18 02:24:09;;;;;;;3.85;2.33;;;-2.00;99.90;;;;;;7402716;19;19910;-71
2023/01/18 02:26:54;;;;;;;5.75;2.58;;;-2.00;99.90;;;;;;7403705;19;19919;-71
2023/01/18 02:29:34;;;;;;;4.70;2.50;;;-2.30;99.90;;;;;;7400857;19;20336;-71
2023/01/18 02:32:15;;;;;;;4.18;2.42;;;-0.80;99.90;;;;;;7401106;19;19926;-72
2023/01/18 02:34:50;;;;;;;3.97;2.50;;;-1.50;99.90;;;;;;7400809;19;19918;-71
2023/01/18 02:37:27;;;;;;;5.35;2.70;;;-1.70;99.90;;;;;;7400241;19;20005;-71
2023/01/18 02:40:10;;;;;;;4.97;3.05;;;-1.50;99.90;;;;;;7400848;19;19922;-71
2023/01/18 02:48:13;;;;;;;5.18;2.35;;;-0.80;99.90;;;;;;7401280;19;19918;-72
2023/01/18 02:50:42;;;;;;;3.33;2.60;;;-2.40;99.90;;;;;;7399947;19;19935;-71
2023/01/18 02:53:15;;;;;;;5.78;2.83;;;-1.50;99.90;;;;;;7400234;19;19911;-71
2023/01/18 02:55:49;;;;;;;4.57;2.60;;;-1.20;99.90;;;;;;7399836;19;19954;-71
2023/01/18 02:58:23;;;;;;;4.50;2.35;;;-1.00;99.90;;;;;;7402851;19;19926;-71
2023/01/18 03:01:01;;;;;;;5.53;2.50;;;-1.00;99.90;;;;;;7398895;19;20248;-72
2023/01/18 03:03:30;;;;;;;;;;;-1.60;99.90;;;;;;7405581;19;19929;-71
2023/01/18 03:06:02;;;;;;;5.78;2.83;;;-1.80;99.90;;;;;;7400086;19;19917;-71
2023/01/18 03:08:37;;;;;;;5.53;3.05;;;-1.30;99.90;;;;;;7400583;19;20010;-71
2023/01/18 03:11:20;;;;;;;5.93;3.15;;;-2.70;99.90;;;;;;7399876;19;19923;-71
2023/01/18 03:13:59;;;;;;;7.82;3.20;;;-1.00;99.90;;;;;;7399735;19;19933;-71
2023/01/18 03:16:38;;;;;;;5.78;3.33;;;-2.20;99.90;;;;;;7399621;19;19915;-71
2023/01/18 03:21:55;;;;;;;4.70;2.83;;;-2.50;99.90;;;;;;7410003;19;19926;-72
2023/01/18 03:24:22;;;;;;;5.25;3.28;;;-1.80;99.90;;;;;;7406048;19;20334;-71
2023/01/18 03:26:55;;;;;;;5.07;2.97;;;-1.10;99.90;;;;;;7403869;19;19977;-72
2023/01/18 03:34:58;;;;;;;7.20;3.15;;;-2.70;99.90;;;;;;7406015;19;19918;-72
2023/01/18 03:37:31;;;;;;;6.53;3.70;;;-2.10;99.90;;;;;;7405477;19;19915;-71
2023/01/18 03:40:03;;;;;;;6.88;3.58;;;-1.80;99.90;;;;;;7407168;19;19937;-71
2023/01/18 03:42:36;;;;;;;5.45;3.30;;;-1.20;99.90;;;;;;7405892;19;19915;-72
2023/01/18 03:45:10;;;;;;;5.93;3.15;;;-1.30;99.90;;;;;;7407406;19;19939;-72
2023/01/18 03:47:41;;;;;;;4.63;3.50;;;-1.20;99.90;;;;;;7405510;19;19919;-72
2023/01/18 03:50:11;;;;;;;6.85;3.83;;;-1.70;99.90;;;;;;7405405;19;19921;-72
2023/01/18 03:52:45;;;;;;;9.05;4.05;;;-1.10;99.90;;;;;;7405380;19;20618;-72
2023/01/18 03:55:19;;;;;;;5.88;3.40;;;-1.80;99.90;;;;;;7407264;19;19923;-72
2023/01/18 03:57:51;;;;;;;7.80;4.10;;;-1.30;99.90;;;;;;7404663;19;19918;-72
2023/01/18 04:00:20;;;;;;;7.13;4.43;;;-1.60;99.90;;;;;;7405439;19;19922;-72
2023/01/18 04:02:52;;;;;;;7.38;4.30;;;-2.50;99.90;;;;;;7405305;19;19918;-72
2023/01/18 04:05:21;;;;;;;5.63;3.25;;;-2.50;99.90;;;;;;7406037;19;19930;-72
2023/01/18 04:07:50;;;;;;;6.25;3.45;;;-1.50;99.90;;;;;;7405260;19;19919;-72
2023/01/18 04:10:19;;;;;;;7.15;4.22;;;-1.50;99.90;;;;;;7408644;19;19922;-72
2023/01/18 04:12:48;;;;;;;7.22;3.67;;;-1.40;99.90;;;;;;7405434;19;20426;-73
2023/01/18 04:15:18;;;;;;;11.30;4.20;;;-1.30;99.90;;;;;;7406878;19;19926;-73
2023/01/18 04:17:48;;;;;;;6.57;3.97;;;-1.50;99.90;;;;;;7402684;19;19919;-72
2023/01/18 04:20:20;;;;;;;6.53;3.75;;;-1.80;99.90;;;;;;7403449;19;19922;-72
2023/01/18 04:22:53;;;;;;;8.07;4.28;;;-1.30;99.90;;;;;;7404707;19;19989;-72
2023/01/18 04:25:23;;;;;;;7.95;3.92;;;-1.40;99.90;;;;;;7404211;19;20283;-72
2023/01/18 04:27:52;;;;;;;7.28;3.85;;;;;;;;;;7402782;19;19927;-72
2023/01/18 04:30:21;;;;;;;7.00;4.18;;;-1.20;99.90;;;;;;7401972;19;20324;-72
2023/01/18 04:32:50;;;;;;;6.82;4.45;;;-1.70;99.90;;;;;;7404322;19;19918;-72
2023/01/18 04:35:21;;;;;;;9.73;4.53;;;-1.70;99.90;;;;;;7404041;19;19915;-72
2023/01/18 04:37:53;;;;;;;6.55;4.05;;;-1.30;99.90;;;;;;7403980;19;19915;-72
2023/01/18 04:40:23;;;;;;;8.50;4.93;;;-1.90;99.90;;;;;;7407991;19;19932;-72
2023/01/18 04:42:55;;;;;;;8.18;4.60;;;-2.60;99.90;;;;;;7404582;19;19923;-72
2023/01/18 04:45:23;;;;;;;8.52;4.35;;;-1.80;99.90;;;;;;7404898;19;19919;-72
2023/01/18 04:47:52;;;;;;;8.68;4.68;;;-2.60;99.90;;;;;;7404359;19;19924;-72
2023/01/18 04:50:24;;;;;;;11.02;5.15;;;-2.00;99.90;;;;;;7403955;19;19941;-72
2023/01/18 04:52:53;;;;;;;9.40;5.15;;;-1.60;99.90;;;;;;7403881;19;19915;-72
2023/01/18 04:55:23;;;;;;;10.38;5.35;;;-1.60;99.90;;;;;;7407702;19;19943;-72
2023/01/18 04:57:57;;;;;;;10.48;5.10;;;-1.90;99.90;;;;;;7403461;19;20379;-72
2023/01/18 05:00:26;;;;;;;9.15;5.00;;;-2.50;99.90;;;;;;7404190;19;19957;-73
2023/01/18 05:02:55;;;;;;;7.97;4.57;;;-2.60;99.90;;;;;;7403602;19;19942;-72
2023/01/18 05:05:27;;;;;;;8.98;5.65;;;-2.00;99.90;;;;;;7404022;19;19915;-72
2023/01/18 05:07:56;;;;;;;6.90;4.20;;;-1.90;99.90;;;;;;7403175;19;19915;-72
2023/01/18 05:10:25;;;;;;;8.90;5.25;;;-1.30;99.90;;;;;;7403686;19;20010;-72
2023/01/18 05:12:53;;;;;;;8.38;4.85;;;-2.00;99.90;;;;;;7406411;19;20285;-72
2023/01/18 05:15:23;;;;;;;8.20;4.65;;;;;;;;;;7405114;19;19921;-72
2023/01/18 05:17:51;;;;;;;8.45;4.72;;;-3.00;99.90;;;;;;7402906;19;19925;-72
2023/01/18 05:20:20;;;;;;;8.15;4.95;;;-2.30;99.90;;;;;;7401911;19;19925;-72
2023/01/18 05:22:52;;;;;;;7.72;4.68;;;-2.70;99.90;;;;;;7403856;19;19914;-73
2023/01/18 05:25:21;;;;;;;7.57;4.82;;;;;;;;;;7403005;19;19926;-72
2023/01/18 05:27:50;;;;;;;7.63;5.15;;;-1.20;99.90;;;;;;7402156;19;19926;-72
2023/01/18 05:30:19;;;;;;;6.38;4.18;;;-2.20;99.90;;;;;;7403336;19;19914;-72
2023/01/18 05:32:48;;;;;;;7.80;4.78;;;-1.60;99.90;;;;;;7402973;19;19992;-72
2023/01/18 05:35:17;;;;;;;7.95;3.97;;;-2.40;99.90;;;;;;7402808;19;20695;-73
2023/01/18 05:37:46;;;;;;;10.27;5.07;;;-1.60;99.90;;;;;;7403114;19;20344;-72
2023/01/18 05:40:19;;;;;;;9.65;5.43;;;-1.80;99.90;;;;;;7407103;19;19918;-72
2023/01/18 05:42:49;;;;;;;7.00;3.90;;;-2.60;99.90;;;;;;7403935;19;19918;-72
2023/01/18 05:45:18;;;;;;;6.65;4.78;;;-2.40;99.90;;;;;;7403015;19;19922;-71
2023/01/18 05:47:47;;;;;;;8.27;4.13;;;-2.40;99.90;;;;;;7403792;19;19990;-72
2023/01/18 05:50:16;;;;;;;8.90;4.40;;;-1.70;99.90;;;;;;7402520;19;19918;-72
2023/01/18 05:52:45;;;;;;;7.50;4.63;;;-2.90;99.90;;;;;;7403148;19;19925;-71
2023/01/18 05:55:18;;;;;;;6.80;4.10;;;-2.50;99.90;;;;;;7404198;19;19931;-71
2023/01/18 05:57:46;;;;;;;10.50;4.13;;;-1.70;99.90;;;;;;7402378;19;19970;-73
2023/01/18 06:00:17;;;;;;;7.22;3.67;;;-1.60;99.90;;;;;;7404854;19;19930;-72
2023/01/18 06:02:46;;;;;;;6.70;3.00;;;-2.00;99.90;;;;;;7401642;19;19925;-71
2023/01/18 06:05:16;;;;;;;5.97;3.60;;;-2.60;99.90;;;;;;7401621;19;19919;-72
2023/01/18 06:07:46;;;;;;;7.82;3.90;;;-1.70;99.90;;;;;;7402082;19;19923;-71
2023/01/18 06:10:18;;;;;;;6.75;4.07;;;-2.40;99.90;;;;;;7405467;19;19930;-71
2023/01/18 06:12:48;;;;;;;9.93;5.63;;;-2.50;99.90;;;;;;7403617;19;19926;-74
2023/01/18 06:15:17;;;;;;;7.70;4.20;;;-2.20;99.90;;;;;;7401917;19;20316;-73
2023/01/18 06:17:47;;;;;;;9.05;4.00;;;-1.30;99.90;;;;;;7399917;19;19923;-73
2023/01/18 06:20:16;;;;;;;8.20;3.90;;;-2.40;99.90;;;;;;7399480;19;20371;-73
2023/01/18 06:22:45;;;;;;;7.15;4.32;;;-2.30;99.90;;;;;;7401141;19;19910;-74
2023/01/18 06:25:14;;;;;;;7.07;4.32;;;;;;;;;;7401171;19;19929;-74
2023/01/18 06:27:46;;;;;;;7.30;3.83;;;-1.90;99.90;;;;;;7402976;19;19923;-74
2023/01/18 06:30:15;;;;;;;7.80;3.92;;;-2.30;99.90;;;;;;7400916;19;19921;-74
2023/01/18 06:32:44;;;;;;;8.27;4.05;;;-2.80;99.90;;;;;;7404363;19;19970;-75
2023/01/18 06:35:13;;;;;;;9.90;4.40;;;-2.70;99.90;;;;;;7401159;19;19918;-73
2023/01/18 06:37:42;;;;;;;7.72;3.67;;;-2.50;99.90;;;;;;7401859;19;19922;-73
2023/01/18 06:40:12;;;;;;;7.10;3.58;;;-2.00;99.90;;;;;;7402211;19;19937;-73
2023/01/18 06:42:41;;;;;;;9.45;3.97;;;;;;;;;;7400317;19;19922;-73
2023/01/18 06:45:15;;;;;;;6.40;3.92;;;-1.30;99.90;;;;;;7401190;19;19918;-74
2023/01/18 06:47:44;;;;;;;6.72;3.67;;;-2.30;99.90;;;;;;7400543;19;19922;-73
2023/01/18 06:50:14;;;;;;;9.75;4.55;;;-2.30;99.90;;;;;;7401368;19;19957;-72
2023/01/18 06:52:43;;;;;;;6.90;4.07;;;-2.30;99.90;;;;;;7389088;19;20330;-76
2023/01/18 06:55:12;;;;;;;7.60;4.28;;;-1.60;99.90;;;;;;7402803;19;19937;-74
2023/01/18 06:57:44;;;;;;;6.25;4.13;;;-2.10;99.90;;;;;;7406480;19;20888;-76
2023/01/18 07:00:18;;;;;;;9.13;4.15;;;-2.60;99.90;;;;;;7406605;19;19918;-76
2023/01/18 07:02:47;;;;;;;7.32;4.03;;;-1.90;99.90;;;;;;7406876;19;20279;-74
2023/01/18 07:05:16;;;;;;;7.00;4.22;;;-1.80;99.90;;;;;;7407617;19;19926;-73
2023/01/18 07:07:45;;;;;;;6.10;4.53;;;-2.70;99.90;;;;;;7408065;19;20491;-72
2023/01/18 07:10:14;;;;;;;6.47;4.22;;;-2.20;99.90;;;;;;7408274;19;20298;-75
2023/01/18 07:12:47;;;;;;;6.95;4.43;;;;;;;;;;7407026;19;19929;-75
2023/01/18 07:15:19;;;;;;;6.63;4.53;;;-1.40;99.90;;;;;;7405192;19;19918;-75
2023/01/18 07:17:49;;;;;;;10.15;4.57;;;-2.50;99.90;;;;;;7406616;19;19978;-73
2023/01/18 07:20:18;;;;;;;6.72;3.92;;;-2.40;99.90;;;;;;7403628;19;19922;-73
2023/01/18 07:22:47;;;;;;;5.30;3.47;;;-2.60;99.90;;;;;;7407334;19;19926;-73
2023/01/18 07:25:19;;;;;;;7.38;3.95;;;-1.60;99.90;;;;;;7407619;19;20340;-73
2023/01/18 07:27:48;;;;;;;12.30;4.47;;;-1.70;99.90;;;;;;7406133;19;19987;-73
2023/01/18 07:30:21;;;;;;;7.85;4.47;;;-2.80;99.90;;;;;;7408399;19;19975;-71
2023/01/18 07:32:51;;;;;;;6.78;4.22;;;-2.40;99.90;;;;;;7408836;19;19914;-72
2023/01/18 07:35:21;;;;;;;7.28;4.40;;;-1.90;99.90;;;;;;7408011;19;19930;-72
2023/01/18 07:37:51;;;;;;;12.98;4.72;;;-2.20;99.90;;;;;;7408542;19;19923;-72
2023/01/18 07:40:22;;;;;;;7.13;4.00;;;-1.90;99.90;;;;;;7405627;19;20661;-71
2023/01/18 07:42:57;;;;;;;9.07;4.43;;;-2.40;99.90;;;;;;7407523;19;19922;-72
2023/01/18 07:45:29;;;;;;;9.50;4.68;;;-2.00;99.90;;;;;;7406946;19;19911;-72
2023/01/18 07:47:59;;;;;;;10.52;4.70;;;;;;;;;;7407459;19;20344;-71
2023/01/18 07:50:28;;;;;;;8.85;4.43;;;-1.30;99.90;;;;;;7407871;19;19929;-72
2023/01/18 07:52:57;;;;;;;5.93;4.07;;;-1.20;99.90;;;;;;7407478;19;19926;-72
2023/01/18 07:55:26;;;;;;;7.13;4.40;;;-1.70;99.90;;;;;;7404005;19;20363;-72
2023/01/18 07:57:57;;;;;;;8.55;4.97;;;-2.10;99.90;;;;;;7407505;19;19915;-71
2023/01/18 08:00:27;;;;;;;8.65;5.22;;;;;;;;;;7403928;19;20257;-72
2023/01/18 08:02:58;;;;;;;7.32;4.97;;;-1.30;99.90;;;;;;7405927;19;19918;-72
2023/01/18 08:05:28;;;;;;;8.85;5.30;;;-2.00;99.90;;;;;;7407314;19;19927;-73
2023/01/18 08:07:57;;;;;;;9.25;4.75;;;-2.50;99.90;;;;;;7408582;19;19915;-73
2023/01/18 08:10:28;;;;;;;7.10;5.05;;;-1.50;99.90;;;;;;7407033;19;20014;-72
2023/01/18 08:12:57;;;;;;;7.75;4.90;;;;;;;;;;7406829;19;20357;-72
2023/01/18 08:15:26;;;;;;;7.88;4.88;;;-2.30;99.90;;;;;;7405060;19;20344;-72
2023/01/18 08:17:58;;;;;;;6.80;4.53;;;-2.40;99.90;;;;;;7407815;19;19919;-71
2023/01/18 08:20:27;;;;;;;8.00;4.05;;;;;;;;;;7405877;19;20308;-72
2023/01/18 08:22:58;;;;;;;9.57;5.07;;;-2.20;99.90;;;;;;7406646;19;19923;-72
2023/01/18 08:25:28;;;;;;;8.75;4.90;;;-2.50;99.90;;;;;;7406366;19;19959;-72
2023/01/18 08:27:59;;;;;;;8.65;4.60;;;-2.30;99.90;;;;;;7406267;19;19937;-72
2023/01/18 08:30:29;;;;;;;9.93;5.25;;;-1.30;99.90;;;;;;7406752;19;20355;-73
2023/01/18 08:33:03;;;;;;;7.13;4.50;;;-2.40;99.90;;;;;;7406813;19;19936;-73
2023/01/18 08:35:33;;;;;;;9.98;4.95;;;-1.80;99.90;;;;;;7407877;19;19927;-73
2023/01/18 08:38:03;;;;;;;12.18;4.82;;;-2.00;99.90;;;;;;7405845;19;19982;-72
2023/01/18 08:40:33;;;;;;;9.13;4.75;;;-2.00;99.90;;;;;;7405176;19;19993;-74
2023/01/18 08:43:04;;;;;;;7.97;4.68;;;-2.60;99.90;;;;;;7406475;19;20379;-73
2023/01/18 08:45:34;;;;;;;10.60;5.38;;;;;;;;;;7405902;19;20516;-73
2023/01/18 08:48:08;;;;;;;6.85;4.55;;;-2.50;99.90;;;;;;7404360;19;19934;-73
2023/01/18 08:50:38;;;;;;;12.00;4.53;;;-2.10;99.90;;;;;;7405895;19;20599;-72
2023/01/18 08:53:07;;;;;;;12.02;5.38;;;-2.00;99.90;;;;;;7407434;19;19925;-74
2023/01/18 08:55:36;;;;;;;8.02;4.57;;;-2.50;99.90;;;;;;7406430;19;19931;-73
2023/01/18 08:58:05;;;;;;;10.65;5.10;;;-2.00;99.90;;;;;;7405986;19;19921;-72
2023/01/18 09:00:35;;;;;;;8.38;4.15;;;-2.40;99.90;;;;;;7404734;19;19933;-73
2023/01/18 09:03:06;;;;;;;8.15;5.00;;;-1.00;99.90;;;;;;7405936;19;19919;-73
2023/01/18 09:05:37;;;;;;;7.93;3.92;;;-2.10;99.90;;;;;;7406101;19;19929;-72
2023/01/18 09:08:07;;;;;;;10.25;4.97;;;-1.10;99.90;;;;;;7404374;19;20410;-72
2023/01/18 09:10:36;;;;;;;10.77;5.18;;;-1.80;99.90;;;;;;7405693;19;19979;-75
2023/01/18 09:13:05;;;;;;;9.63;4.47;;;-2.10;99.90;;;;;;7405482;19;19934;-74
2023/01/18 09:15:35;;;;;;;7.43;4.32;;;-1.40;99.90;;;;;;7403339;19;19929;-74
2023/01/18 09:18:07;;;;;;;8.32;5.32;;;-1.70;99.90;;;;;;7405412;19;20543;-73
2023/01/18 09:20:37;;;;;;;10.70;5.00;;;-2.00;99.90;;;;;;7403778;19;19941;-75
2023/01/18 09:23:07;;;;;;;7.88;4.85;;;-1.60;99.90;;;;;;7404970;19;19932;-74
2023/01/18 09:25:36;;;;;;;7.82;4.72;;;-1.20;99.90;;;;;;7406299;19;19919;-74
2023/01/18 09:28:07;;;;;;;8.20;5.13;;;-1.10;99.90;;;;;;7404537;19;19926;-73
2023/01/18 09:30:37;;;;;;;7.47;4.25;;;-1.30;99.90;;;;;;7405582;19;19937;-75
2023/01/18 09:33:10;;;;;;;9.43;4.97;;;-0.80;99.90;;;;;;7404800;19;19918;-73
2023/01/18 09:35:39;;;;;;;8.60;4.03;;;;;;;;;;7404177;19;19949;-73
2023/01/18 09:38:11;;;;;;;7.03;4.40;;;;;;;;;;7404677;19;19918;-72
2023/01/18 09:40:45;;;;;;;7.50;4.05;;;-0.10;99.90;;;;;;7403352;19;19958;-73
2023/01/18 09:43:24;;;;;;;7.50;4.47;;;-0.40;99.90;;;;;;7404529;19;19922;-72
2023/01/18 09:45:54;;;;;;;13.07;5.57;;;-0.40;99.90;;;;;;7404957;19;20572;-72
2023/01/18 09:48:34;;;;;;;6.32;4.18;;;-0.30;99.90;;;;;;7403799;19;19921;-73
2023/01/18 09:51:10;;;;;;;11.55;4.32;;;-0.20;99.90;;;;;;7404089;19;19927;-72
2023/01/18 09:53:56;;;;;;;10.50;4.07;;;-1.10;99.90;;;;;;7402734;19;19951;-73
2023/01/18 09:56:29;;;;;;;6.80;3.72;;;-0.60;99.90;;;;;;7403378;19;19978;-72
2023/01/18 09:59:07;;;;;;;8.18;4.32;;;-1.30;99.90;;;;;;7402733;19;20311;-72
2023/01/18 10:01:36;;;;;;;;;;;-0.40;99.90;;;;;;7404278;19;20010;-73
2023/01/18 10:04:16;;;;;;;9.38;4.10;;;-0.40;99.90;;;;;;7404451;19;19927;-73
2023/01/18 10:06:49;;;;;;;7.07;4.43;;;0.50;99.90;;;;;;7401620;19;19914;-72
2023/01/18 10:09:22;;;;;;;8.82;5.03;;;-1.20;99.90;;;;;;7403555;19;20561;-74
2023/01/18 10:11:58;;;;;;;6.75;4.35;;;-0.30;99.90;;;;;;7403990;19;19922;-73
2023/01/18 10:14:41;;;;;;;8.30;4.10;;;0.30;99.90;;;;;;7404527;19;19922;-73
2023/01/18 10:17:16;;;;;;;5.57;4.22;;;-0.10;99.90;;;;;;7403700;19;19923;-72
2023/01/18 10:19:48;;;;;;;13.85;4.63;;;-0.20;99.90;;;;;;7404031;19;19983;-73
2023/01/18 10:22:24;;;;;;;9.80;3.92;;;0.80;99.90;;;;;;7402343;19;19957;-72
2023/01/18 10:25:01;;;;;;;6.50;4.28;;;0.20;99.90;;;;;;7403734;19;19922;-71
2023/01/18 10:27:49;;;;;;;6.90;3.97;;;-0.40;99.90;;;;;;7401557;19;19918;-71
2023/01/18 10:30:33;;;;;;;6.65;3.90;;;-0.60;99.90;;;;;;7406155;19;19974;-71
2023/01/18 10:33:05;;;;;;;6.93;4.20;;;0.80;99.90;;;;;;7409972;19;19937;-72
2023/01/18 10:35:39;;;;;;;;;;;0.30;99.90;;;;;;7411797;19;20255;-71
2023/01/18 10:38:14;;;;;;;9.15;4.15;;;0.10;99.90;;;;;;7410022;19;19941;-71
2023/01/18 10:40:45;;;;;;;7.47;4.22;;;1.00;99.90;;;;;;7407942;19;19939;-71
2023/01/18 10:43:19;;;;;;;7.90;3.80;;;0.60;99.90;;;;;;7410431;19;19914;-71
2023/01/18 10:45:48;;;;;;;8.85;3.85;;;0.20;99.90;;;;;;7406502;19;19914;-71
2023/01/18 10:48:28;;;;;;;6.80;3.55;;;0.70;99.90;;;;;;7410015;19;19925;-71
2023/01/18 10:51:01;;;;;;;7.18;3.95;;;1.40;99.90;;;;;;7409521;19;19919;-71
2023/01/18 10:53:33;;;;;;;9.18;3.85;;;0.00;99.90;;;;;;7409683;19;19929;-72
2023/01/18 10:56:05;;;;;;;5.95;4.20;;;0.50;99.90;;;;;;7407148;19;19930;-72
2023/01/18 10:58:41;;;;;;;7.43;3.72;;;0.70;99.90;;;;;;7409215;19;19918;-71
2023/01/18 11:01:18;;;;;;;7.97;3.47;;;0.30;99.90;;;;;;7408697;19;19922;-71
2023/01/18 11:03:50;;;;;;;7.30;3.25;;;1.60;99.90;;;;;;7406346;19;19918;-71
2023/01/18 11:06:23;;;;;;;;;;;0.90;99.90;;;;;;7412790;19;19986;-71
2023/01/18 11:08:52;;;;;;;5.80;3.65;;;0.30;99.90;;;;;;7409357;19;19923;-71
2023/01/18 11:14:25;;;;;;;6.55;3.20;;;2.00;99.90;;;;;;7404656;19;20495;-71
2023/01/18 11:17:02;;;;;;;7.47;3.65;;;0.80;99.90;;;;;;7402956;19;19978;-73
2023/01/18 11:19:32;;;;;;;8.73;3.38;;;0.50;99.90;;;;;;7408242;19;20372;-72
2023/01/18 11:22:03;;;;;;;7.30;3.42;;;0.50;99.90;;;;;;7403175;19;19919;-72
2023/01/18 11:24:33;;;;;;;5.90;3.40;;;2.00;99.90;;;;;;7405858;19;20273;-72
2023/01/18 11:27:05;;;;;;;8.65;3.67;;;1.60;99.90;;;;;;7406035;19;19938;-72
2023/01/18 11:29:38;;;;;;;6.40;3.30;;;1.40;99.90;;;;;;7408274;19;20320;-72
2023/01/18 11:32:09;;;;;;;6.57;3.95;;;1.50;99.90;;;;;;7405805;19;20351;-71
2023/01/18 11:34:42;;;;;;;6.47;3.00;;;2.20;99.90;;;;;;7407145;19;19926;-71
2023/01/18 11:37:33;;;;;;;6.50;3.17;;;0.90;99.90;;;;;;7407821;19;19922;-72
2023/01/18 11:40:02;;;;;;;6.25;3.70;;;1.00;99.90;;;;;;7404951;19;19911;-71
2023/01/18 11:42:33;;;;;;;7.50;3.20;;;2.70;99.90;;;;;;7407309;19;19915;-72
2023/01/18 11:45:16;;;;;;;6.53;2.95;;;2.70;99.90;;;;;;7407465;19;19962;-71
2023/01/18 11:47:57;;;;;;;6.65;3.50;;;2.60;99.90;;;;;;7406575;19;19945;-71
2023/01/18 11:50:36;;;;;;;4.88;2.65;;;2.80;99.90;;;;;;7406685;19;20303;-71
2023/01/18 11:53:20;;;;;;;4.13;2.60;;;2.30;99.90;;;;;;7406824;19;19925;-71
2023/01/18 11:55:55;;;;;;;7.28;3.13;;;1.10;99.90;;;;;;7407173;19;19930;-71
2023/01/18 11:58:27;;;;;;;7.93;2.95;;;1.50;99.90;;;;;;7407748;19;20417;-70
2023/01/18 12:01:09;;;;;;;5.22;2.90;;;2.20;99.90;;;;;;7404949;19;20357;-71
2023/01/18 12:03:53;;;;;;;4.40;2.50;;;2.50;99.90;;;;;;7404264;19;19938;-71
2023/01/18 12:06:31;;;;;;;7.78;3.05;;;1.80;99.90;;;;;;7405865;19;19918;-73
2023/01/18 12:09:18;;;;;;;5.45;3.42;;;2.20;99.90;;;;;;7406064;19;20459;-73
2023/01/18 12:11:58;;;;;;;5.22;2.38;;;2.20;99.90;;;;;;7314842;19;19930;-73
2023/01/18 12:14:50;;;;;;;6.97;2.53;;;1.60;99.90;;;;;;7403610;19;19918;-73
2023/01/18 12:17:37;;;;;;;4.90;2.72;;;2.40;99.90;;;;;;7404338;19;19923;-72
2023/01/18 12:20:22;;;;;;;4.50;2.38;;;1.90;99.90;;;;;;7407043;19;19914;-71
2023/01/18 12:23:21;;;;;;;4.60;2.05;;;2.50;99.90;;;;;;7404317;19;19922;-71
2023/01/18 12:26:16;;;;;;;4.43;2.28;;;2.50;99.90;;;;;;7400993;19;19951;-70
2023/01/18 12:29:14;;;;;;;4.80;2.50;;;2.70;99.90;;;;;;7406630;19;20248;-70
2023/01/18 12:31:59;;;;;;;5.97;2.38;;;2.80;99.90;;;;;;7403829;19;19982;-70
2023/01/18 12:34:35;;;;;;;4.68;3.20;;;3.30;99.90;;;;;;7405766;19;19996;-71
2023/01/18 12:37:33;;;;;;;6.68;2.55;;;2.90;99.90;;;;;;7404845;19;19930;-71
2023/01/18 12:40:22;;;;;;;7.22;2.60;;;3.10;99.90;;;;;;7406201;19;19926;-70
2023/01/18 12:43:02;;;;;;;3.53;2.45;;;3.40;99.90;;;;;;7404743;19;19929;-70
2023/01/18 12:45:39;;;;;;;5.38;2.25;;;2.80;99.90;;;;;;7406593;19;19985;-70
2023/01/18 12:48:17;;;;;;;4.18;2.20;;;2.00;99.90;;;;;;7406253;19;19923;-70
2023/01/18 12:50:50;;;;;;;5.63;2.42;;;2.10;99.90;;;;;;7404639;19;19976;-70
2023/01/18 12:53:24;;;;;;;3.30;2.33;;;2.70;99.90;;;;;;7407126;19;20279;-70
2023/01/18 12:55:58;;;;;;;3.58;2.65;;;2.90;99.90;;;;;;7404776;19;19986;-70
2023/01/18 12:58:29;;;;;;;5.45;2.70;;;3.40;99.90;;;;;;7406114;19;19918;-71
2023/01/18 13:01:03;;;;;;;4.07;2.45;;;2.20;99.90;;;;;;7404529;19;19927;-71
2023/01/18 13:03:36;;;;;;;5.43;3.00;;;2.90;99.90;;;;;;7405884;19;20327;-70
2023/01/18 13:06:06;;;;;;;8.43;2.63;;;3.00;99.90;;;;;;7404929;19;19922;-70
2023/01/18 13:08:41;;;;;;;4.18;2.58;;;2.70;99.90;;;;;;7407172;19;19926;-70
2023/01/18 13:11:16;;;;;;;5.10;2.70;;;3.70;99.90;;;;;;7404993;19;19918;-70
2023/01/18 13:13:48;;;;;;;5.43;2.72;;;3.00;99.90;;;;;;7406768;19;19926;-70
2023/01/18 13:16:33;;;;;;;3.30;2.42;;;2.30;99.90;;;;;;7405656;19;19931;-71
2023/01/18 13:19:05;;;;;;;6.82;3.05;;;1.90;99.90;;;;;;7406766;19;19920;-70
2023/01/18 13:21:46;;;;;;;3.38;2.28;;;3.70;99.90;;;;;;7403560;19;19942;-71
2023/01/18 13:24:27;;;;;;;7.38;2.92;;;2.80;99.90;;;;;;7406416;19;19926;-70
2023/01/18 13:27:08;;;;;;;6.00;2.30;;;3.70;99.90;;;;;;7404668;19;20267;-70
2023/01/18 13:29:40;;;;;;;5.78;2.60;;;3.60;99.90;;;;;;7405339;19;19982;-71
2023/01/18 13:32:26;;;;;;;3.25;1.90;;;3.10;99.90;;;;;;7405732;19;20276;-71
2023/01/18 13:35:04;;;;;;;7.80;2.30;;;2.10;99.90;;;;;;7403720;19;19922;-70
2023/01/18 13:37:49;;;;;;;6.30;2.40;;;2.90;99.90;;;;;;7404429;19;20274;-71
2023/01/18 13:40:33;;;;;;;5.85;2.00;;;2.10;99.90;;;;;;7406110;19;19927;-70
2023/01/18 13:43:02;;;;;;;5.43;2.17;;;2.80;99.90;;;;;;7406456;19;20370;-71
2023/01/18 13:45:35;;;;;;;4.38;2.47;;;2.60;99.90;;;;;;7402598;19;19942;-71
2023/01/18 13:48:06;;;;;;;3.22;2.17;;;2.90;99.90;;;;;;7400971;19;20253;-70
2023/01/18 13:50:53;;;;;;;4.78;2.33;;;2.40;99.90;;;;;;7406261;19;19922;-70
2023/01/18 13:53:28;;;;;;;4.40;2.15;;;2.60;99.90;;;;;;7402382;19;19939;-70
2023/01/18 13:56:27;;;;;;;6.07;2.45;;;1.80;99.90;;;;;;7401488;19;19995;-70
2023/01/18 13:59:18;;;;;;;8.23;2.40;;;1.80;99.90;;;;;;7401231;19;19919;-70
2023/01/18 14:01:51;;;;;;;5.38;1.90;;;3.10;99.90;;;;;;7403132;19;19923;-71